sensor_id;sensor_type;location;lat;lon;timestamp;pressure;altitude;pressure_sealevel;temperature;humidity
52319;BME280;38258;51.148;14.068;2022-10-22T00:01:36;97950.22;;;8.90;100.00
52319;BME280;38258;51.148;14.068;2022-10-22T00:04:03;97934.34;;;8.67;100.00
52319;BME280;38258;51.148;14.068;2022-10-22T00:06:30;97929.16;;;8.65;100.00
52319;BME280;38258;51.148;14.068;2022-10-22T00:08:59;97968.59;;;8.86;100.00
52319;BME280;38258;51.148;14.068;2022-10-22T00:11:25;97970.97;;;8.94;100.00
52319;BME280;38258;51.148;14.068;2022-10-22T00:13:52;97978.91;;;8.90;100.00
52319;BME280;38258;51.148;14.068;2022-10-22T00:16:19;97977.50;;;9.09;100.00
52319;BME280;38258;51.148;14.068;2022-10-22T00:18:45;97970.47;;;9.11;100.00
52319;BME280;38258;51.148;14.068;2022-10-22T00:21:12;97965.31;;;9.09;100.00
52319;BME280;38258;51.148;14.068;2022-10-22T00:23:39;97923.88;;;8.68;100.00
52319;BME280;38258;51.148;14.068;2022-10-22T00:26:08;97959.22;;;9.09;100.00
52319;BME280;38258;51.148;14.068;2022-10-22T00:28:35;97962.72;;;9.09;100.00
52319;BME280;38258;51.148;14.068;2022-10-22T00:31:03;97949.13;;;8.98;100.00
52319;BME280;38258;51.148;14.068;2022-10-22T00:33:29;97944.16;;;8.88;100.00
52319;BME280;38258;51.148;14.068;2022-10-22T00:35:57;97904.91;;;8.63;100.00
52319;BME280;38258;51.148;14.068;2022-10-22T00:38:23;97954.56;;;8.90;100.00
52319;BME280;38258;51.148;14.068;2022-10-22T00:40:50;97950.25;;;8.89;100.00
52319;BME280;38258;51.148;14.068;2022-10-22T00:43:19;97887.38;;;8.68;100.00
52319;BME280;38258;51.148;14.068;2022-10-22T00:45:45;97919.75;;;8.91;100.00
52319;BME280;38258;51.148;14.068;2022-10-22T00:48:14;97913.03;;;8.84;100.00
52319;BME280;38258;51.148;14.068;2022-10-22T00:50:45;97915.63;;;8.84;100.00
52319;BME280;38258;51.148;14.068;2022-10-22T00:53:15;97916.47;;;8.84;100.00
52319;BME280;38258;51.148;14.068;2022-10-22T00:55:43;97934.00;;;8.79;100.00
52319;BME280;38258;51.148;14.068;2022-10-22T00:58:11;97936.56;;;8.81;100.00
52319;BME280;38258;51.148;14.068;2022-10-22T01:00:40;97932.19;;;8.83;100.00
52319;BME280;38258;51.148;14.068;2022-10-22T01:03:07;97930.31;;;8.86;100.00
52319;BME280;38258;51.148;14.068;2022-10-22T01:05:38;97931.09;;;8.90;100.00
52319;BME280;38258;51.148;14.068;2022-10-22T01:08:10;97887.28;;;8.71;100.00
52319;BME280;38258;51.148;14.068;2022-10-22T01:10:48;97909.31;;;8.91;100.00
52319;BME280;38258;51.148;14.068;2022-10-22T01:13:25;97914.66;;;8.86;100.00
52319;BME280;38258;51.148;14.068;2022-10-22T01:16:03;97917.84;;;8.96;100.00
52319;BME280;38258;51.148;14.068;2022-10-22T01:18:38;97925.63;;;8.99;100.00
52319;BME280;38258;51.148;14.068;2022-10-22T01:21:15;97939.16;;;9.11;100.00
52319;BME280;38258;51.148;14.068;2022-10-22T01:24:16;97927.94;;;9.09;100.00
52319;BME280;38258;51.148;14.068;2022-10-22T01:26:56;97917.78;;;8.99;100.00
52319;BME280;38258;51.148;14.068;2022-10-22T01:29:29;97915.88;;;9.04;100.00
52319;BME280;38258;51.148;14.068;2022-10-22T01:31:59;97917.47;;;9.10;100.00
52319;BME280;38258;51.148;14.068;2022-10-22T01:34:27;97918.41;;;9.08;100.00
52319;BME280;38258;51.148;14.068;2022-10-22T01:36:56;97931.88;;;9.22;100.00
52319;BME280;38258;51.148;14.068;2022-10-22T01:39:23;97928.47;;;9.20;100.00
52319;BME280;38258;51.148;14.068;2022-10-22T01:41:53;97931.72;;;9.28;100.00
52319;BME280;38258;51.148;14.068;2022-10-22T01:44:24;97922.00;;;9.32;100.00
52319;BME280;38258;51.148;14.068;2022-10-22T01:46:59;97923.66;;;9.36;100.00
52319;BME280;38258;51.148;14.068;2022-10-22T01:49:33;97910.09;;;9.23;100.00
52319;BME280;38258;51.148;14.068;2022-10-22T01:52:14;97885.59;;;9.00;100.00
52319;BME280;38258;51.148;14.068;2022-10-22T01:54:50;97918.28;;;9.11;100.00
52319;BME280;38258;51.148;14.068;2022-10-22T01:57:22;97932.75;;;9.23;100.00
52319;BME280;38258;51.148;14.068;2022-10-22T01:59:53;97928.31;;;9.26;100.00
52319;BME280;38258;51.148;14.068;2022-10-22T02:02:33;97919.63;;;9.24;100.00
52319;BME280;38258;51.148;14.068;2022-10-22T02:05:04;97918.78;;;9.24;100.00
52319;BME280;38258;51.148;14.068;2022-10-22T02:07:36;97922.34;;;9.21;100.00
52319;BME280;38258;51.148;14.068;2022-10-22T02:10:05;97925.97;;;9.17;100.00
52319;BME280;38258;51.148;14.068;2022-10-22T02:12:34;97912.91;;;9.17;100.00
52319;BME280;38258;51.148;14.068;2022-10-22T02:15:01;97917.34;;;9.13;100.00
52319;BME280;38258;51.148;14.068;2022-10-22T02:17:32;97909.16;;;8.97;100.00
52319;BME280;38258;51.148;14.068;2022-10-22T02:20:05;97925.19;;;9.13;100.00
52319;BME280;38258;51.148;14.068;2022-10-22T02:22:34;97933.91;;;9.12;100.00
52319;BME280;38258;51.148;14.068;2022-10-22T02:25:02;97929.34;;;9.21;100.00
52319;BME280;38258;51.148;14.068;2022-10-22T02:27:30;97916.19;;;9.24;100.00
52319;BME280;38258;51.148;14.068;2022-10-22T02:30:02;97920.53;;;9.23;100.00
52319;BME280;38258;51.148;14.068;2022-10-22T02:32:33;97914.50;;;9.21;100.00
52319;BME280;38258;51.148;14.068;2022-10-22T02:35:02;97882.84;;;9.05;100.00
52319;BME280;38258;51.148;14.068;2022-10-22T02:37:29;97916.84;;;9.30;100.00
52319;BME280;38258;51.148;14.068;2022-10-22T02:39:56;97898.16;;;9.16;100.00
52319;BME280;38258;51.148;14.068;2022-10-22T02:42:23;97864.81;;;8.97;100.00
52319;BME280;38258;51.148;14.068;2022-10-22T02:44:51;97895.72;;;9.10;100.00
52319;BME280;38258;51.148;14.068;2022-10-22T02:47:17;97910.84;;;9.28;100.00
52319;BME280;38258;51.148;14.068;2022-10-22T02:49:46;97910.72;;;9.31;100.00
52319;BME280;38258;51.148;14.068;2022-10-22T02:52:12;97904.28;;;9.15;100.00
52319;BME280;38258;51.148;14.068;2022-10-22T02:54:39;97880.69;;;8.89;100.00
52319;BME280;38258;51.148;14.068;2022-10-22T02:57:05;97909.88;;;9.02;100.00
52319;BME280;38258;51.148;14.068;2022-10-22T02:59:32;97920.75;;;9.17;100.00
52319;BME280;38258;51.148;14.068;2022-10-22T03:01:59;97893.22;;;9.07;100.00
52319;BME280;38258;51.148;14.068;2022-10-22T03:04:26;97915.38;;;9.22;100.00
52319;BME280;38258;51.148;14.068;2022-10-22T03:06:54;97913.72;;;9.19;100.00
52319;BME280;38258;51.148;14.068;2022-10-22T03:09:21;97924.19;;;9.17;100.00
52319;BME280;38258;51.148;14.068;2022-10-22T03:11:47;97933.16;;;9.09;100.00
52319;BME280;38258;51.148;14.068;2022-10-22T03:14:14;97931.28;;;9.14;100.00
52319;BME280;38258;51.148;14.068;2022-10-22T03:16:40;97916.59;;;9.10;100.00
52319;BME280;38258;51.148;14.068;2022-10-22T03:19:07;97924.25;;;9.16;100.00
52319;BME280;38258;51.148;14.068;2022-10-22T03:21:38;97922.09;;;9.00;100.00
52319;BME280;38258;51.148;14.068;2022-10-22T03:24:10;97931.28;;;9.14;100.00
52319;BME280;38258;51.148;14.068;2022-10-22T03:26:38;97927.75;;;9.15;100.00
52319;BME280;38258;51.148;14.068;2022-10-22T03:29:07;97916.69;;;9.07;100.00
52319;BME280;38258;51.148;14.068;2022-10-22T03:31:35;97924.41;;;9.10;100.00
52319;BME280;38258;51.148;14.068;2022-10-22T03:34:02;97930.00;;;9.27;100.00
52319;BME280;38258;51.148;14.068;2022-10-22T03:36:34;97904.22;;;9.16;100.00
52319;BME280;38258;51.148;14.068;2022-10-22T03:39:01;97910.16;;;9.22;100.00
52319;BME280;38258;51.148;14.068;2022-10-22T03:41:31;97924.19;;;9.17;100.00
52319;BME280;38258;51.148;14.068;2022-10-22T03:43:59;97910.97;;;9.24;100.00
52319;BME280;38258;51.148;14.068;2022-10-22T03:46:26;97892.28;;;9.09;100.00
52319;BME280;38258;51.148;14.068;2022-10-22T03:48:52;97937.09;;;9.22;100.00
52319;BME280;38258;51.148;14.068;2022-10-22T03:51:19;97917.59;;;9.05;100.00
52319;BME280;38258;51.148;14.068;2022-10-22T03:53:46;97935.97;;;9.31;100.00
52319;BME280;38258;51.148;14.068;2022-10-22T03:56:12;97943.84;;;9.29;100.00
52319;BME280;38258;51.148;14.068;2022-10-22T03:58:40;97934.25;;;9.30;100.00
52319;BME280;38258;51.148;14.068;2022-10-22T04:01:09;97937.78;;;9.29;100.00
52319;BME280;38258;51.148;14.068;2022-10-22T04:03:37;97946.41;;;9.31;100.00
52319;BME280;38258;51.148;14.068;2022-10-22T04:06:05;97949.19;;;9.26;100.00
52319;BME280;38258;51.148;14.068;2022-10-22T04:08:32;97950.03;;;9.25;100.00
52319;BME280;38258;51.148;14.068;2022-10-22T04:10:59;97951.94;;;9.20;100.00
52319;BME280;38258;51.148;14.068;2022-10-22T04:13:26;97926.00;;;9.15;100.00
52319;BME280;38258;51.148;14.068;2022-10-22T04:15:54;97953.50;;;9.27;100.00
52319;BME280;38258;51.148;14.068;2022-10-22T04:18:22;97946.59;;;9.25;100.00
52319;BME280;38258;51.148;14.068;2022-10-22T04:20:50;97935.50;;;9.18;100.00
52319;BME280;38258;51.148;14.068;2022-10-22T04:23:17;97937.16;;;9.21;100.00
52319;BME280;38258;51.148;14.068;2022-10-22T04:25:43;97941.47;;;9.22;100.00
52319;BME280;38258;51.148;14.068;2022-10-22T04:28:10;97944.38;;;9.11;100.00
52319;BME280;38258;51.148;14.068;2022-10-22T04:30:37;97949.47;;;9.15;100.00
52319;BME280;38258;51.148;14.068;2022-10-22T04:33:05;97935.63;;;9.13;100.00
52319;BME280;38258;51.148;14.068;2022-10-22T04:35:31;97927.03;;;9.10;100.00
52319;BME280;38258;51.148;14.068;2022-10-22T04:37:58;97939.25;;;9.08;100.00
52319;BME280;38258;51.148;14.068;2022-10-22T04:40:24;97939.22;;;9.09;100.00
52319;BME280;38258;51.148;14.068;2022-10-22T04:42:51;97929.78;;;9.05;100.00
52319;BME280;38258;51.148;14.068;2022-10-22T04:45:18;97942.41;;;9.19;100.00
52319;BME280;38258;51.148;14.068;2022-10-22T04:47:44;97945.03;;;9.19;100.00
52319;BME280;38258;51.148;14.068;2022-10-22T04:53:28;97853.84;;;8.56;100.00
52319;BME280;38258;51.148;14.068;2022-10-22T04:56:08;97806.00;;;8.27;100.00
52319;BME280;38258;51.148;14.068;2022-10-22T04:58:57;97816.31;;;8.30;100.00
52319;BME280;38258;51.148;14.068;2022-10-22T05:05:12;97840.00;;;8.54;100.00
52319;BME280;38258;51.148;14.068;2022-10-22T05:08:18;97737.47;;;7.93;100.00
52319;BME280;38258;51.148;14.068;2022-10-22T05:11:26;97860.31;;;8.72;100.00
52319;BME280;38258;51.148;14.068;2022-10-22T05:14:22;97797.00;;;8.37;100.00
52319;BME280;38258;51.148;14.068;2022-10-22T05:17:24;97771.50;;;8.17;100.00
52319;BME280;38258;51.148;14.068;2022-10-22T05:20:41;97888.72;;;8.82;100.00
52319;BME280;38258;51.148;14.068;2022-10-22T05:26:39;97864.19;;;8.59;100.00
52319;BME280;38258;51.148;14.068;2022-10-22T05:29:18;97862.97;;;8.71;100.00
52319;BME280;38258;51.148;14.068;2022-10-22T05:31:53;97968.47;;;9.21;100.00
52319;BME280;38258;51.148;14.068;2022-10-22T05:34:28;97902.16;;;8.98;100.00
52319;BME280;38258;51.148;14.068;2022-10-22T05:37:02;97923.22;;;8.91;100.00
52319;BME280;38258;51.148;14.068;2022-10-22T05:39:41;97949.03;;;9.01;100.00
52319;BME280;38258;51.148;14.068;2022-10-22T05:42:14;97883.03;;;8.67;100.00
52319;BME280;38258;51.148;14.068;2022-10-22T05:45:05;97805.44;;;8.15;100.00
52319;BME280;38258;51.148;14.068;2022-10-22T05:47:49;97806.94;;;8.23;100.00
52319;BME280;38258;51.148;14.068;2022-10-22T05:50:39;97908.72;;;8.83;100.00
52319;BME280;38258;51.148;14.068;2022-10-22T05:53:23;97892.78;;;8.60;100.00
52319;BME280;38258;51.148;14.068;2022-10-22T05:56:00;97907.94;;;8.79;100.00
52319;BME280;38258;51.148;14.068;2022-10-22T05:58:31;97808.94;;;8.14;100.00
52319;BME280;38258;51.148;14.068;2022-10-22T06:01:12;97960.13;;;9.08;100.00
52319;BME280;38258;51.148;14.068;2022-10-22T06:03:42;98003.88;;;9.29;100.00
52319;BME280;38258;51.148;14.068;2022-10-22T06:06:21;97913.31;;;8.73;100.00
52319;BME280;38258;51.148;14.068;2022-10-22T06:08:58;98008.47;;;9.21;100.00
52319;BME280;38258;51.148;14.068;2022-10-22T06:11:29;97885.53;;;8.40;100.00
52319;BME280;38258;51.148;14.068;2022-10-22T06:13:59;97883.47;;;8.52;100.00
52319;BME280;38258;51.148;14.068;2022-10-22T06:16:31;97902.59;;;8.52;100.00
52319;BME280;38258;51.148;14.068;2022-10-22T06:19:04;97816.06;;;8.07;100.00
52319;BME280;38258;51.148;14.068;2022-10-22T06:21:38;97976.97;;;8.97;100.00
52319;BME280;38258;51.148;14.068;2022-10-22T06:24:15;97880.88;;;8.52;100.00
52319;BME280;38258;51.148;14.068;2022-10-22T06:26:43;97946.72;;;8.90;100.00
52319;BME280;38258;51.148;14.068;2022-10-22T06:29:30;97832.38;;;8.14;100.00
52319;BME280;38258;51.148;14.068;2022-10-22T06:31:58;97970.22;;;8.90;100.00
52319;BME280;38258;51.148;14.068;2022-10-22T06:34:32;97988.84;;;9.08;100.00
52319;BME280;38258;51.148;14.068;2022-10-22T06:37:02;97905.00;;;8.60;100.00
52319;BME280;38258;51.148;14.068;2022-10-22T06:41:22;97982.59;;;9.13;100.00
52319;BME280;38258;51.148;14.068;2022-10-22T06:49:53;97898.06;;;8.59;100.00
52319;BME280;38258;51.148;14.068;2022-10-22T06:52:41;97998.31;;;9.12;100.00
52319;BME280;38258;51.148;14.068;2022-10-22T06:55:13;97922.13;;;8.69;100.00
52319;BME280;38258;51.148;14.068;2022-10-22T07:13:05;97983.34;;;9.17;100.00
52319;BME280;38258;51.148;14.068;2022-10-22T07:15:44;97982.66;;;9.12;100.00
52319;BME280;38258;51.148;14.068;2022-10-22T07:18:33;97882.66;;;8.49;100.00
52319;BME280;38258;51.148;14.068;2022-10-22T07:24:54;98001.97;;;9.04;100.00
52319;BME280;38258;51.148;14.068;2022-10-22T07:27:32;97993.22;;;9.07;100.00
52319;BME280;38258;51.148;14.068;2022-10-22T07:30:18;97918.22;;;8.54;100.00
52319;BME280;38258;51.148;14.068;2022-10-22T07:32:48;98016.72;;;9.05;100.00
52319;BME280;38258;51.148;14.068;2022-10-22T07:35:15;97979.97;;;8.82;100.00
52319;BME280;38258;51.148;14.068;2022-10-22T07:37:42;97989.09;;;8.67;100.00
52319;BME280;38258;51.148;14.068;2022-10-22T07:40:10;97964.28;;;8.52;100.00
52319;BME280;38258;51.148;14.068;2022-10-22T07:42:37;97974.69;;;8.53;100.00
52319;BME280;38258;51.148;14.068;2022-10-22T07:45:07;98014.50;;;8.91;100.00
52319;BME280;38258;51.148;14.068;2022-10-22T07:47:38;97907.63;;;8.25;100.00
52319;BME280;38258;51.148;14.068;2022-10-22T07:50:10;98034.41;;;8.94;100.00
52319;BME280;38258;51.148;14.068;2022-10-22T07:52:39;98018.09;;;8.87;100.00
52319;BME280;38258;51.148;14.068;2022-10-22T07:55:06;97957.13;;;8.60;100.00
52319;BME280;38258;51.148;14.068;2022-10-22T07:57:40;97972.25;;;8.45;100.00
52319;BME280;38258;51.148;14.068;2022-10-22T08:00:21;98061.25;;;8.99;100.00
52319;BME280;38258;51.148;14.068;2022-10-22T08:02:49;97967.66;;;8.55;100.00
52319;BME280;38258;51.148;14.068;2022-10-22T08:05:22;98048.81;;;9.09;100.00
52319;BME280;38258;51.148;14.068;2022-10-22T08:07:57;98021.38;;;8.94;100.00
52319;BME280;38258;51.148;14.068;2022-10-22T08:10:27;98048.63;;;9.15;100.00
52319;BME280;38258;51.148;14.068;2022-10-22T08:12:57;98018.06;;;8.89;100.00
52319;BME280;38258;51.148;14.068;2022-10-22T08:15:37;97991.69;;;8.68;100.00
52319;BME280;38258;51.148;14.068;2022-10-22T08:18:06;98014.09;;;8.74;100.00
52319;BME280;38258;51.148;14.068;2022-10-22T08:20:35;97941.22;;;8.36;100.00
52319;BME280;38258;51.148;14.068;2022-10-22T08:23:04;98148.00;;;9.41;100.00
52319;BME280;38258;51.148;14.068;2022-10-22T08:25:39;97993.94;;;8.46;100.00
52319;BME280;38258;51.148;14.068;2022-10-22T08:28:17;98155.28;;;9.28;100.00
52319;BME280;38258;51.148;14.068;2022-10-22T08:30:49;97938.47;;;8.07;100.00
52319;BME280;38258;51.148;14.068;2022-10-22T08:33:24;98046.50;;;8.65;100.00
52319;BME280;38258;51.148;14.068;2022-10-22T08:36:08;98114.41;;;9.28;100.00
52319;BME280;38258;51.148;14.068;2022-10-22T08:38:36;98044.72;;;9.00;100.00
52319;BME280;38258;51.148;14.068;2022-10-22T08:41:15;98131.03;;;9.56;100.00
52319;BME280;38258;51.148;14.068;2022-10-22T08:44:26;98152.03;;;9.83;100.00
52319;BME280;38258;51.148;14.068;2022-10-22T08:50:36;98122.97;;;9.94;100.00
52319;BME280;38258;51.148;14.068;2022-10-22T09:00:30;98046.19;;;9.71;100.00
52319;BME280;38258;51.148;14.068;2022-10-22T09:03:22;98136.06;;;10.22;100.00
52319;BME280;38258;51.148;14.068;2022-10-22T09:06:02;98023.56;;;9.70;100.00
52319;BME280;38258;51.148;14.068;2022-10-22T09:08:44;97998.63;;;9.88;100.00
52319;BME280;38258;51.148;14.068;2022-10-22T09:11:21;98111.69;;;10.50;100.00
52319;BME280;38258;51.148;14.068;2022-10-22T09:14:01;98130.50;;;10.62;100.00
52319;BME280;38258;51.148;14.068;2022-10-22T09:20:03;98147.31;;;10.81;100.00
52319;BME280;38258;51.148;14.068;2022-10-22T09:21:38;97968.88;;;9.65;100.00
52319;BME280;38258;51.148;14.068;2022-10-22T09:24:43;98057.03;;;10.14;100.00
52319;BME280;38258;51.148;14.068;2022-10-22T09:30:52;98155.81;;;10.88;100.00
52319;BME280;38258;51.148;14.068;2022-10-22T09:33:23;98156.50;;;10.93;100.00
52319;BME280;38258;51.148;14.068;2022-10-22T09:35:53;98154.59;;;10.98;100.00
52319;BME280;38258;51.148;14.068;2022-10-22T09:38:25;98154.66;;;10.95;100.00
52319;BME280;38258;51.148;14.068;2022-10-22T09:40:54;98160.56;;;11.02;100.00
52319;BME280;38258;51.148;14.068;2022-10-22T09:43:21;98161.19;;;11.09;100.00
52319;BME280;38258;51.148;14.068;2022-10-22T09:45:55;98135.63;;;11.17;100.00
52319;BME280;38258;51.148;14.068;2022-10-22T09:48:28;98157.50;;;11.40;100.00
52319;BME280;38258;51.148;14.068;2022-10-22T09:51:05;98140.13;;;11.63;100.00
52319;BME280;38258;51.148;14.068;2022-10-22T09:53:37;98150.94;;;12.01;100.00
52319;BME280;38258;51.148;14.068;2022-10-22T09:56:08;98143.91;;;12.03;100.00
52319;BME280;38258;51.148;14.068;2022-10-22T09:58:41;98140.25;;;12.07;100.00
52319;BME280;38258;51.148;14.068;2022-10-22T10:01:16;98144.16;;;12.19;100.00
52319;BME280;38258;51.148;14.068;2022-10-22T10:03:44;98162.81;;;12.34;100.00
52319;BME280;38258;51.148;14.068;2022-10-22T10:06:11;98156.31;;;12.44;100.00
52319;BME280;38258;51.148;14.068;2022-10-22T10:08:39;98156.69;;;12.35;100.00
52319;BME280;38258;51.148;14.068;2022-10-22T10:11:10;98132.56;;;12.25;100.00
52319;BME280;38258;51.148;14.068;2022-10-22T10:13:45;98159.69;;;12.48;100.00
52319;BME280;38258;51.148;14.068;2022-10-22T10:16:27;98150.13;;;12.67;100.00
52319;BME280;38258;51.148;14.068;2022-10-22T10:19:05;98150.56;;;12.79;100.00
52319;BME280;38258;51.148;14.068;2022-10-22T10:21:44;98134.34;;;12.90;100.00
52319;BME280;38258;51.148;14.068;2022-10-22T10:24:21;98139.09;;;13.02;100.00
52319;BME280;38258;51.148;14.068;2022-10-22T10:26:54;98154.78;;;13.24;100.00
52319;BME280;38258;51.148;14.068;2022-10-22T10:29:33;98150.06;;;13.33;100.00
52319;BME280;38258;51.148;14.068;2022-10-22T10:32:14;98159.00;;;13.49;100.00
52319;BME280;38258;51.148;14.068;2022-10-22T10:34:50;98160.72;;;13.50;100.00
52319;BME280;38258;51.148;14.068;2022-10-22T10:37:24;98160.56;;;13.53;100.00
52319;BME280;38258;51.148;14.068;2022-10-22T10:40:11;98155.31;;;13.33;100.00
52319;BME280;38258;51.148;14.068;2022-10-22T10:42:45;98160.19;;;13.42;100.00
52319;BME280;38258;51.148;14.068;2022-10-22T10:45:16;98156.69;;;13.41;100.00
52319;BME280;38258;51.148;14.068;2022-10-22T10:47:57;98157.16;;;13.51;100.00
52319;BME280;38258;51.148;14.068;2022-10-22T10:50:30;98164.56;;;13.62;100.00
52319;BME280;38258;51.148;14.068;2022-10-22T10:53:59;98167.56;;;13.74;100.00
52319;BME280;38258;51.148;14.068;2022-10-22T10:56:36;98167.78;;;13.88;100.00
52319;BME280;38258;51.148;14.068;2022-10-22T10:59:13;98170.50;;;13.87;100.00
52319;BME280;38258;51.148;14.068;2022-10-22T11:01:48;98179.91;;;13.92;100.00
52319;BME280;38258;51.148;14.068;2022-10-22T11:04:54;98173.84;;;14.09;100.00
52319;BME280;38258;51.148;14.068;2022-10-22T11:07:26;98167.94;;;14.42;100.00
52319;BME280;38258;51.148;14.068;2022-10-22T11:09:59;98169.97;;;15.45;100.00
52319;BME280;38258;51.148;14.068;2022-10-22T11:12:32;98167.66;;;16.06;100.00
52319;BME280;38258;51.148;14.068;2022-10-22T11:15:03;98143.03;;;16.70;100.00
52319;BME280;38258;51.148;14.068;2022-10-22T11:17:35;98157.03;;;16.56;100.00
52319;BME280;38258;51.148;14.068;2022-10-22T11:20:13;98154.75;;;16.17;100.00
52319;BME280;38258;51.148;14.068;2022-10-22T11:22:44;98160.13;;;15.48;100.00
52319;BME280;38258;51.148;14.068;2022-10-22T11:25:17;98173.44;;;15.63;100.00
52319;BME280;38258;51.148;14.068;2022-10-22T11:27:48;98159.44;;;16.60;100.00
52319;BME280;38258;51.148;14.068;2022-10-22T11:30:18;98159.19;;;16.49;100.00
52319;BME280;38258;51.148;14.068;2022-10-22T11:32:48;98139.44;;;16.71;100.00
52319;BME280;38258;51.148;14.068;2022-10-22T11:35:19;98169.22;;;16.58;100.00
52319;BME280;38258;51.148;14.068;2022-10-22T11:37:47;98174.25;;;16.15;100.00
52319;BME280;38258;51.148;14.068;2022-10-22T11:40:17;98158.59;;;14.91;100.00
52319;BME280;38258;51.148;14.068;2022-10-22T11:42:49;98179.09;;;14.28;100.00
52319;BME280;38258;51.148;14.068;2022-10-22T11:45:27;98160.47;;;13.56;100.00
52319;BME280;38258;51.148;14.068;2022-10-22T11:47:58;98199.16;;;13.53;100.00
52319;BME280;38258;51.148;14.068;2022-10-22T11:50:44;98152.53;;;12.94;100.00
52319;BME280;38258;51.148;14.068;2022-10-22T11:53:18;98205.53;;;12.82;100.00
52319;BME280;38258;51.148;14.068;2022-10-22T11:55:47;98206.09;;;12.68;100.00
52319;BME280;38258;51.148;14.068;2022-10-22T11:58:29;98195.84;;;12.62;100.00
52319;BME280;38258;51.148;14.068;2022-10-22T12:00:57;98214.41;;;12.57;100.00
52319;BME280;38258;51.148;14.068;2022-10-22T12:03:40;98196.41;;;12.48;100.00
52319;BME280;38258;51.148;14.068;2022-10-22T12:06:18;98200.25;;;12.39;100.00
52319;BME280;38258;51.148;14.068;2022-10-22T12:08:50;98201.16;;;12.38;100.00
52319;BME280;38258;51.148;14.068;2022-10-22T12:11:20;98192.84;;;12.49;100.00
52319;BME280;38258;51.148;14.068;2022-10-22T12:13:57;98197.63;;;12.61;100.00
52319;BME280;38258;51.148;14.068;2022-10-22T12:16:29;98185.59;;;12.55;100.00
52319;BME280;38258;51.148;14.068;2022-10-22T12:19:04;98198.16;;;12.69;100.00
52319;BME280;38258;51.148;14.068;2022-10-22T12:21:32;98188.88;;;12.83;100.00
52319;BME280;38258;51.148;14.068;2022-10-22T12:23:59;98180.81;;;12.87;100.00
52319;BME280;38258;51.148;14.068;2022-10-22T12:26:29;98187.03;;;13.07;100.00
52319;BME280;38258;51.148;14.068;2022-10-22T12:29:02;98204.34;;;13.32;100.00
52319;BME280;38258;51.148;14.068;2022-10-22T12:31:35;98197.16;;;13.37;100.00
52319;BME280;38258;51.148;14.068;2022-10-22T12:34:02;98204.25;;;13.35;100.00
52319;BME280;38258;51.148;14.068;2022-10-22T12:36:31;98205.66;;;13.44;100.00
52319;BME280;38258;51.148;14.068;2022-10-22T12:38:58;98212.13;;;13.35;100.00
52319;BME280;38258;51.148;14.068;2022-10-22T12:41:31;98173.31;;;13.21;100.00
52319;BME280;38258;51.148;14.068;2022-10-22T12:44:02;98205.47;;;13.68;100.00
52319;BME280;38258;51.148;14.068;2022-10-22T12:46:31;98164.09;;;14.50;100.00
52319;BME280;38258;51.148;14.068;2022-10-22T12:48:59;98193.31;;;15.00;100.00
52319;BME280;38258;51.148;14.068;2022-10-22T12:51:26;98192.16;;;15.23;100.00
52319;BME280;38258;51.148;14.068;2022-10-22T12:53:55;98194.38;;;15.66;100.00
52319;BME280;38258;51.148;14.068;2022-10-22T12:56:24;98183.06;;;16.14;100.00
52319;BME280;38258;51.148;14.068;2022-10-22T12:58:55;98197.72;;;16.03;100.00
52319;BME280;38258;51.148;14.068;2022-10-22T13:01:25;98197.72;;;16.19;100.00
52319;BME280;38258;51.148;14.068;2022-10-22T13:04:04;98199.94;;;16.27;100.00
52319;BME280;38258;51.148;14.068;2022-10-22T13:06:32;98201.13;;;16.05;100.00
52319;BME280;38258;51.148;14.068;2022-10-22T13:09:11;98193.66;;;16.30;100.00
52319;BME280;38258;51.148;14.068;2022-10-22T13:11:41;98202.25;;;16.17;100.00
52319;BME280;38258;51.148;14.068;2022-10-22T13:14:25;98191.50;;;16.04;100.00
52319;BME280;38258;51.148;14.068;2022-10-22T13:17:08;98199.94;;;16.11;100.00
52319;BME280;38258;51.148;14.068;2022-10-22T13:19:37;98208.44;;;16.16;100.00
52319;BME280;38258;51.148;14.068;2022-10-22T13:22:04;98208.44;;;16.16;100.00
52319;BME280;38258;51.148;14.068;2022-10-22T13:24:30;98214.09;;;16.42;100.00
52319;BME280;38258;51.148;14.068;2022-10-22T13:27:01;98214.06;;;16.26;100.00
52319;BME280;38258;51.148;14.068;2022-10-22T13:29:28;98216.66;;;16.60;100.00
52319;BME280;38258;51.148;14.068;2022-10-22T13:31:54;98204.06;;;16.49;100.00
52319;BME280;38258;51.148;14.068;2022-10-22T13:34:23;98217.47;;;16.28;100.00
52319;BME280;38258;51.148;14.068;2022-10-22T13:36:51;98211.78;;;16.52;100.00
52319;BME280;38258;51.148;14.068;2022-10-22T13:39:20;98210.50;;;16.27;100.00
52319;BME280;38258;51.148;14.068;2022-10-22T13:41:48;98202.97;;;15.69;100.00
52319;BME280;38258;51.148;14.068;2022-10-22T13:44:15;98215.75;;;15.77;100.00
52319;BME280;38258;51.148;14.068;2022-10-22T13:46:43;98221.03;;;15.07;100.00
52319;BME280;38258;51.148;14.068;2022-10-22T13:49:13;98203.84;;;15.52;100.00
52319;BME280;38258;51.148;14.068;2022-10-22T13:51:42;98211.09;;;16.00;100.00
52319;BME280;38258;51.148;14.068;2022-10-22T13:54:12;98219.50;;;15.73;100.00
52319;BME280;38258;51.148;14.068;2022-10-22T13:56:40;98201.53;;;15.46;100.00
52319;BME280;38258;51.148;14.068;2022-10-22T13:59:07;98200.75;;;15.62;100.00
52319;BME280;38258;51.148;14.068;2022-10-22T14:01:35;98217.78;;;15.90;100.00
52319;BME280;38258;51.148;14.068;2022-10-22T14:04:04;98205.50;;;16.38;100.00
52319;BME280;38258;51.148;14.068;2022-10-22T14:06:31;98221.16;;;16.58;100.00
52319;BME280;38258;51.148;14.068;2022-10-22T14:09:02;98226.69;;;16.53;100.00